createdAt,value
2022-10-21T00:00:49.428Z,90.10
2022-10-21T00:05:53.119Z,90.10
2022-10-21T00:11:00.027Z,90.10
2022-10-21T00:16:06.022Z,90.20
2022-10-21T00:21:09.824Z,90.20
2022-10-21T00:26:14.970Z,90.20
2022-10-21T00:31:17.422Z,90.20
2022-10-21T00:36:20.024Z,90.40
2022-10-21T00:41:24.040Z,90.20
2022-10-21T00:46:40.862Z,90.50
2022-10-21T00:51:47.582Z,90.40
2022-10-21T00:56:53.070Z,90.10
2022-10-21T01:01:55.788Z,90.20
2022-10-21T01:06:59.870Z,90.20
2022-10-21T01:12:09.159Z,90.00
2022-10-21T01:17:43.811Z,90.10
2022-10-21T01:23:21.604Z,90.10
2022-10-21T01:28:35.999Z,90.40
2022-10-21T01:33:45.832Z,90.20
2022-10-21T01:39:02.595Z,90.10
2022-10-21T01:44:13.067Z,90.20
2022-10-21T01:49:23.864Z,90.10
2022-10-21T01:54:29.487Z,90.00
2022-10-21T01:59:32.955Z,90.00
2022-10-21T02:04:39.290Z,90.00
2022-10-21T02:09:41.770Z,89.80
2022-10-21T02:14:48.231Z,89.90
2022-10-21T02:19:52.517Z,90.20
2022-10-21T02:24:58.790Z,90.10
2022-10-21T02:30:02.412Z,90.10
2022-10-21T02:35:17.345Z,90.30
2022-10-21T02:40:24.122Z,90.20
2022-10-21T02:45:27.650Z,90.10
2022-10-21T02:50:31.744Z,90.20
2022-10-21T02:55:34.187Z,90.40
2022-10-21T03:00:36.583Z,90.30
2022-10-21T03:05:41.024Z,90.40
2022-10-21T03:10:43.715Z,90.50
2022-10-21T03:15:46.306Z,90.40
2022-10-21T03:20:51.811Z,90.40
2022-10-21T03:25:54.422Z,90.40
2022-10-21T03:30:56.990Z,90.30
2022-10-21T03:36:01.155Z,90.30
2022-10-21T03:41:03.745Z,90.30
2022-10-21T03:46:15.565Z,90.30
2022-10-21T03:51:36.837Z,90.50
2022-10-21T03:56:42.764Z,90.50
2022-10-21T04:01:47.447Z,90.30
2022-10-21T04:06:56.108Z,90.30
2022-10-21T04:12:03.941Z,90.30
2022-10-21T04:17:08.087Z,90.30
2022-10-21T04:22:12.318Z,90.20
2022-10-21T04:27:14.823Z,90.20
2022-10-21T04:32:17.249Z,90.20
2022-10-21T04:37:21.169Z,90.20
2022-10-21T04:42:23.873Z,90.20
2022-10-21T04:47:26.385Z,90.30
2022-10-21T04:52:30.648Z,90.20
2022-10-21T04:57:33.339Z,90.30
2022-10-21T05:02:36.141Z,90.20
2022-10-21T05:07:40.431Z,90.20
2022-10-21T05:12:42.951Z,90.40
2022-10-21T05:17:45.497Z,90.50
2022-10-21T05:22:49.513Z,90.50
2022-10-21T05:27:52.072Z,90.70
2022-10-21T05:32:54.641Z,90.70
2022-10-21T05:37:58.713Z,90.70
2022-10-21T05:43:01.269Z,90.80
2022-10-21T05:48:04.304Z,90.60
2022-10-21T05:53:08.260Z,90.60
2022-10-21T05:58:10.834Z,90.70
2022-10-21T06:03:13.174Z,90.70
2022-10-21T06:08:17.418Z,90.70
2022-10-21T06:13:19.887Z,90.80
2022-10-21T06:18:22.899Z,90.80
2022-10-21T06:23:27.134Z,90.90
2022-10-21T06:28:32.267Z,91.00
2022-10-21T06:33:36.038Z,90.90
2022-10-21T06:38:40.093Z,90.90
2022-10-21T06:43:43.024Z,90.80
2022-10-21T06:48:45.599Z,90.80
2022-10-21T06:53:53.573Z,90.80
2022-10-21T06:58:58.867Z,90.80
2022-10-21T07:04:01.633Z,90.90
2022-10-21T07:09:07.764Z,91.00
2022-10-21T07:14:10.729Z,91.10
2022-10-21T07:19:13.348Z,91.60
2022-10-21T07:24:22.292Z,92.00
2022-10-21T07:29:25.428Z,91.60
2022-10-21T07:34:28.060Z,91.20
2022-10-21T07:39:32.395Z,90.80
2022-10-21T07:44:35.838Z,90.70
2022-10-21T07:49:38.469Z,90.10
2022-10-21T07:54:42.681Z,89.30
2022-10-21T07:59:45.299Z,87.50
2022-10-21T08:04:47.769Z,87.30
2022-10-21T08:09:53.803Z,85.70
2022-10-21T08:14:56.481Z,84.00
2022-10-21T08:19:59.640Z,82.10
2022-10-21T08:25:03.656Z,80.80
2022-10-21T08:30:07.175Z,81.40
2022-10-21T08:35:09.949Z,81.60
2022-10-21T08:40:15.337Z,82.20
2022-10-21T08:45:29.087Z,82.60
2022-10-21T08:50:38.335Z,83.60
2022-10-21T08:55:45.218Z,84.40
2022-10-21T09:00:51.907Z,85.50
2022-10-21T09:06:21.500Z,86.80
2022-10-21T09:11:36.397Z,86.40
2022-10-21T09:16:49.812Z,85.90
2022-10-21T09:22:16.445Z,83.40
2022-10-21T09:27:37.780Z,82.30
2022-10-21T09:32:56.317Z,82.30
2022-10-21T09:38:05.805Z,81.70
2022-10-21T09:43:18.053Z,81.60
2022-10-21T09:48:30.760Z,81.90
2022-10-21T09:53:43.580Z,82.60
2022-10-21T09:59:07.168Z,82.80
2022-10-21T10:04:12.849Z,82.60
2022-10-21T10:09:17.826Z,82.50
2022-10-21T10:14:31.689Z,82.60
2022-10-21T10:24:39.921Z,83.00
2022-10-21T10:29:50.893Z,83.90
2022-10-21T10:34:56.805Z,85.30
2022-10-21T10:40:01.008Z,84.30
2022-10-21T10:45:13.348Z,82.60
2022-10-21T10:50:47.122Z,80.00
2022-10-21T10:55:57.641Z,77.40
2022-10-21T11:01:05.942Z,77.40
2022-10-21T11:06:16.476Z,76.50
2022-10-21T11:11:25.935Z,74.80
2022-10-21T11:16:59.121Z,74.50
2022-10-21T11:22:12.579Z,73.80
2022-10-21T11:27:23.541Z,74.60
2022-10-21T11:32:40.338Z,75.50
2022-10-21T11:37:48.915Z,74.60
2022-10-21T11:42:54.751Z,76.40
2022-10-21T11:48:09.395Z,74.80
2022-10-21T11:53:25.767Z,75.20
2022-10-21T11:58:42.904Z,75.20
2022-10-21T12:04:19.913Z,76.40
2022-10-21T12:09:27.168Z,75.30
2022-10-21T12:14:34.235Z,76.10
2022-10-21T12:19:38.228Z,76.50
2022-10-21T12:24:51.201Z,77.40
2022-10-21T12:30:24.843Z,77.00
2022-10-21T12:35:45.666Z,76.60
2022-10-21T12:40:49.750Z,76.70
2022-10-21T12:46:11.683Z,77.40
2022-10-21T12:51:23.721Z,77.00
2022-10-21T12:56:30.560Z,76.90
2022-10-21T13:01:42.814Z,77.30
2022-10-21T13:06:53.264Z,77.30
2022-10-21T13:12:05.268Z,77.60
2022-10-21T13:17:33.440Z,77.30
2022-10-21T13:23:03.425Z,77.50
2022-10-21T13:28:21.133Z,77.40
2022-10-21T13:33:28.812Z,77.80
2022-10-21T13:38:35.627Z,78.00
2022-10-21T13:43:40.938Z,78.40
2022-10-21T13:48:45.899Z,78.40
2022-10-21T13:53:57.051Z,78.80
2022-10-21T13:58:59.761Z,79.00
2022-10-21T14:04:14.178Z,79.10
2022-10-21T14:09:24.370Z,79.30
2022-10-21T14:14:29.005Z,79.70
2022-10-21T14:19:37.788Z,79.80
2022-10-21T14:24:47.110Z,79.90
2022-10-21T14:29:52.938Z,80.00
2022-10-21T14:35:01.888Z,79.90
2022-10-21T14:40:24.416Z,80.00
2022-10-21T14:45:43.717Z,80.10
2022-10-21T14:50:55.352Z,80.30
2022-10-21T14:56:06.971Z,80.40
2022-10-21T15:01:19.085Z,80.40
2022-10-21T15:06:23.941Z,80.70
2022-10-21T15:11:54.334Z,80.70
2022-10-21T15:17:02.398Z,80.70
2022-10-21T15:22:06.244Z,80.70
2022-10-21T15:27:16.160Z,80.70
2022-10-21T15:32:18.773Z,80.80
2022-10-21T15:37:24.137Z,80.70
2022-10-21T15:42:30.220Z,80.60
2022-10-21T15:47:33.706Z,80.60
2022-10-21T15:52:36.464Z,80.70
2022-10-21T15:57:41.542Z,80.90
2022-10-21T16:02:44.964Z,81.00
2022-10-21T16:07:50.803Z,81.10
2022-10-21T16:12:55.714Z,81.30
2022-10-21T16:17:58.774Z,81.60
2022-10-21T16:23:04.801Z,81.60
2022-10-21T16:28:12.312Z,81.90
2022-10-21T16:33:14.896Z,81.90
2022-10-21T16:38:17.597Z,81.90
2022-10-21T16:43:21.911Z,82.20
2022-10-21T16:48:24.719Z,82.50
2022-10-21T16:53:27.534Z,82.70
2022-10-21T16:58:31.776Z,82.90
2022-10-21T17:03:34.781Z,83.20
2022-10-21T17:08:37.425Z,83.30
2022-10-21T17:13:41.865Z,83.40
2022-10-21T17:18:47.937Z,83.70
2022-10-21T17:23:53.384Z,83.90
2022-10-21T17:28:57.915Z,83.70
2022-10-21T17:34:01.964Z,83.80
2022-10-21T17:39:08.355Z,84.00
2022-10-21T17:44:16.115Z,83.90
2022-10-21T17:49:19.098Z,83.90
2022-10-21T17:59:59.742Z,84.20
2022-10-21T18:05:02.120Z,83.90
2022-10-21T18:10:06.713Z,83.80
2022-10-21T18:15:11.818Z,83.80
2022-10-21T18:20:14.192Z,83.90
2022-10-21T18:25:17.379Z,83.80
2022-10-21T18:30:21.692Z,83.90
2022-10-21T18:35:24.135Z,84.10
2022-10-21T18:40:27.269Z,84.10
2022-10-21T18:45:31.686Z,84.10
2022-10-21T18:50:37.116Z,84.30
2022-10-21T18:55:40.320Z,84.50
2022-10-21T19:00:44.250Z,84.50
2022-10-21T19:05:46.689Z,84.60
2022-10-21T19:10:49.300Z,84.60
2022-10-21T19:15:53.265Z,84.70
2022-10-21T19:20:57.146Z,84.80
2022-10-21T19:26:02.374Z,84.90
2022-10-21T19:31:06.781Z,85.00
2022-10-21T19:36:12.181Z,85.10
2022-10-21T19:41:17.834Z,85.10
2022-10-21T19:46:25.666Z,86.00
2022-10-21T19:51:28.592Z,85.10
2022-10-21T19:56:34.021Z,84.90
2022-10-21T20:01:39.188Z,84.90
2022-10-21T20:06:42.062Z,85.00
2022-10-21T20:11:45.257Z,85.00
2022-10-21T20:16:49.888Z,85.20
2022-10-21T20:21:52.195Z,85.60
2022-10-21T20:26:58.432Z,85.60
2022-10-21T20:32:05.433Z,85.70
2022-10-21T20:37:09.917Z,85.70
2022-10-21T20:42:13.495Z,85.90
2022-10-21T20:47:17.222Z,86.00
2022-10-21T20:52:20.409Z,86.20
2022-10-21T20:57:22.978Z,86.30
2022-10-21T21:02:26.958Z,86.40
2022-10-21T21:07:29.193Z,86.50
2022-10-21T21:12:31.452Z,86.50
2022-10-21T21:17:35.164Z,86.70
2022-10-21T21:22:37.800Z,86.90
2022-10-21T21:27:40.508Z,87.10
2022-10-21T21:32:44.733Z,87.20
2022-10-21T21:37:47.357Z,87.50
2022-10-21T21:42:49.850Z,87.50
2022-10-21T21:47:53.819Z,87.50
2022-10-21T21:52:56.183Z,87.50
2022-10-21T21:57:58.390Z,87.40
2022-10-21T22:03:02.215Z,87.50
2022-10-21T22:08:05.715Z,87.70
2022-10-21T22:13:07.952Z,87.80
2022-10-21T22:18:12.190Z,88.00
2022-10-21T22:23:14.734Z,88.20
2022-10-21T22:28:17.178Z,88.20
2022-10-21T22:33:20.877Z,88.50
2022-10-21T22:38:23.870Z,88.60
2022-10-21T22:43:27.068Z,88.70
2022-10-21T22:48:30.769Z,88.70
2022-10-21T22:53:34.653Z,89.00
2022-10-21T22:58:36.908Z,89.00
2022-10-21T23:03:41.477Z,90.00
2022-10-21T23:08:43.775Z,89.30
2022-10-21T23:13:56.334Z,89.50
2022-10-21T23:19:07.731Z,89.50
2022-10-21T23:24:11.034Z,89.80
2022-10-21T23:29:13.292Z,90.00
2022-10-21T23:34:17.101Z,90.10
2022-10-21T23:39:19.545Z,90.20
2022-10-21T23:44:21.791Z,90.00
2022-10-21T23:49:25.734Z,90.00
2022-10-21T23:54:27.938Z,90.00
2022-10-21T23:59:30.268Z,90.00
